sensor_id;sensor_type;location;lat;lon;timestamp;P1;durP1;ratioP1;P2;durP2;ratioP2
20531;SDS011;10424;52.102;8.084;2022-11-20T00:01:10;21.00;;;9.83;;
20531;SDS011;10424;52.102;8.084;2022-11-20T00:03:38;20.63;;;10.13;;
20531;SDS011;10424;52.102;8.084;2022-11-20T00:06:07;23.77;;;10.90;;
20531;SDS011;10424;52.102;8.084;2022-11-20T00:08:35;22.33;;;10.43;;
20531;SDS011;10424;52.102;8.084;2022-11-20T00:11:02;24.03;;;11.30;;
20531;SDS011;10424;52.102;8.084;2022-11-20T00:13:30;21.83;;;10.40;;
20531;SDS011;10424;52.102;8.084;2022-11-20T00:15:58;24.07;;;10.63;;
20531;SDS011;10424;52.102;8.084;2022-11-20T00:18:25;20.07;;;9.90;;
20531;SDS011;10424;52.102;8.084;2022-11-20T00:20:52;21.47;;;10.73;;
20531;SDS011;10424;52.102;8.084;2022-11-20T00:23:21;22.73;;;10.60;;
20531;SDS011;10424;52.102;8.084;2022-11-20T00:25:48;23.00;;;10.53;;
20531;SDS011;10424;52.102;8.084;2022-11-20T00:28:16;22.20;;;9.70;;
20531;SDS011;10424;52.102;8.084;2022-11-20T00:30:43;23.67;;;9.97;;
20531;SDS011;10424;52.102;8.084;2022-11-20T00:33:10;21.23;;;9.30;;
20531;SDS011;10424;52.102;8.084;2022-11-20T00:35:37;20.47;;;8.63;;
20531;SDS011;10424;52.102;8.084;2022-11-20T00:38:05;27.27;;;9.00;;
20531;SDS011;10424;52.102;8.084;2022-11-20T00:40:33;22.70;;;8.80;;
20531;SDS011;10424;52.102;8.084;2022-11-20T00:43:01;19.33;;;8.33;;
20531;SDS011;10424;52.102;8.084;2022-11-20T00:45:28;17.53;;;7.80;;
20531;SDS011;10424;52.102;8.084;2022-11-20T00:47:55;16.80;;;7.33;;
20531;SDS011;10424;52.102;8.084;2022-11-20T00:50:22;14.17;;;7.53;;
20531;SDS011;10424;52.102;8.084;2022-11-20T00:52:50;14.87;;;6.33;;
20531;SDS011;10424;52.102;8.084;2022-11-20T00:55:17;10.23;;;4.77;;
20531;SDS011;10424;52.102;8.084;2022-11-20T00:57:46;9.40;;;5.00;;
20531;SDS011;10424;52.102;8.084;2022-11-20T01:00:13;10.00;;;5.00;;
20531;SDS011;10424;52.102;8.084;2022-11-20T01:02:40;11.97;;;4.93;;
20531;SDS011;10424;52.102;8.084;2022-11-20T01:05:07;9.87;;;4.90;;
20531;SDS011;10424;52.102;8.084;2022-11-20T01:07:35;8.53;;;4.90;;
20531;SDS011;10424;52.102;8.084;2022-11-20T01:10:02;10.67;;;5.10;;
20531;SDS011;10424;52.102;8.084;2022-11-20T01:12:29;9.60;;;4.80;;
20531;SDS011;10424;52.102;8.084;2022-11-20T01:14:58;10.13;;;4.90;;
20531;SDS011;10424;52.102;8.084;2022-11-20T01:17:25;12.93;;;5.70;;
20531;SDS011;10424;52.102;8.084;2022-11-20T01:19:53;11.83;;;5.33;;
20531;SDS011;10424;52.102;8.084;2022-11-20T01:22:20;10.27;;;4.77;;
20531;SDS011;10424;52.102;8.084;2022-11-20T01:24:47;8.97;;;4.33;;
20531;SDS011;10424;52.102;8.084;2022-11-20T01:27:14;9.87;;;4.50;;
20531;SDS011;10424;52.102;8.084;2022-11-20T01:29:42;10.87;;;5.47;;
20531;SDS011;10424;52.102;8.084;2022-11-20T01:32:10;13.20;;;5.80;;
20531;SDS011;10424;52.102;8.084;2022-11-20T01:34:37;11.83;;;5.70;;
20531;SDS011;10424;52.102;8.084;2022-11-20T01:37:05;11.03;;;5.60;;
20531;SDS011;10424;52.102;8.084;2022-11-20T01:39:32;12.70;;;5.67;;
20531;SDS011;10424;52.102;8.084;2022-11-20T01:41:59;12.53;;;5.63;;
20531;SDS011;10424;52.102;8.084;2022-11-20T01:44:48;12.17;;;5.80;;
20531;SDS011;10424;52.102;8.084;2022-11-20T01:47:18;13.90;;;6.17;;
20531;SDS011;10424;52.102;8.084;2022-11-20T01:49:48;12.80;;;6.30;;
20531;SDS011;10424;52.102;8.084;2022-11-20T01:52:18;16.43;;;6.27;;
20531;SDS011;10424;52.102;8.084;2022-11-20T01:54:47;12.40;;;6.17;;
20531;SDS011;10424;52.102;8.084;2022-11-20T01:57:15;15.07;;;7.30;;
20531;SDS011;10424;52.102;8.084;2022-11-20T01:59:44;14.70;;;7.43;;
20531;SDS011;10424;52.102;8.084;2022-11-20T02:02:14;15.73;;;7.50;;
20531;SDS011;10424;52.102;8.084;2022-11-20T02:04:43;15.37;;;7.33;;
20531;SDS011;10424;52.102;8.084;2022-11-20T02:07:11;19.80;;;8.07;;
20531;SDS011;10424;52.102;8.084;2022-11-20T02:09:38;19.47;;;9.10;;
20531;SDS011;10424;52.102;8.084;2022-11-20T02:12:05;24.73;;;9.73;;
20531;SDS011;10424;52.102;8.084;2022-11-20T02:14:53;22.60;;;9.70;;
20531;SDS011;10424;52.102;8.084;2022-11-20T02:17:20;21.83;;;9.60;;
20531;SDS011;10424;52.102;8.084;2022-11-20T02:19:49;21.50;;;10.00;;
20531;SDS011;10424;52.102;8.084;2022-11-20T02:22:17;27.27;;;11.97;;
20531;SDS011;10424;52.102;8.084;2022-11-20T02:24:47;24.60;;;10.17;;
20531;SDS011;10424;52.102;8.084;2022-11-20T02:27:15;22.73;;;10.00;;
20531;SDS011;10424;52.102;8.084;2022-11-20T02:29:44;30.63;;;11.80;;
20531;SDS011;10424;52.102;8.084;2022-11-20T02:32:17;27.43;;;12.40;;
20531;SDS011;10424;52.102;8.084;2022-11-20T02:34:45;25.87;;;11.77;;
20531;SDS011;10424;52.102;8.084;2022-11-20T02:37:12;27.33;;;11.40;;
20531;SDS011;10424;52.102;8.084;2022-11-20T02:39:40;28.00;;;11.97;;
20531;SDS011;10424;52.102;8.084;2022-11-20T02:42:09;28.20;;;11.10;;
20531;SDS011;10424;52.102;8.084;2022-11-20T02:44:37;28.47;;;10.97;;
20531;SDS011;10424;52.102;8.084;2022-11-20T02:47:04;20.90;;;9.87;;
20531;SDS011;10424;52.102;8.084;2022-11-20T02:49:31;23.23;;;9.33;;
20531;SDS011;10424;52.102;8.084;2022-11-20T02:51:59;22.37;;;9.50;;
20531;SDS011;10424;52.102;8.084;2022-11-20T02:54:26;20.00;;;9.37;;
20531;SDS011;10424;52.102;8.084;2022-11-20T02:56:53;20.63;;;9.23;;
20531;SDS011;10424;52.102;8.084;2022-11-20T02:59:22;19.63;;;8.27;;
20531;SDS011;10424;52.102;8.084;2022-11-20T03:01:49;19.53;;;9.10;;
20531;SDS011;10424;52.102;8.084;2022-11-20T03:04:17;21.00;;;9.07;;
20531;SDS011;10424;52.102;8.084;2022-11-20T03:06:44;19.20;;;8.83;;
20531;SDS011;10424;52.102;8.084;2022-11-20T03:09:11;21.63;;;8.77;;
20531;SDS011;10424;52.102;8.084;2022-11-20T03:11:39;21.93;;;9.07;;
20531;SDS011;10424;52.102;8.084;2022-11-20T03:14:06;17.00;;;8.07;;
20531;SDS011;10424;52.102;8.084;2022-11-20T03:16:35;17.03;;;7.40;;
20531;SDS011;10424;52.102;8.084;2022-11-20T03:19:02;18.53;;;7.80;;
20531;SDS011;10424;52.102;8.084;2022-11-20T03:21:29;16.47;;;7.60;;
20531;SDS011;10424;52.102;8.084;2022-11-20T03:23:57;16.60;;;7.43;;
20531;SDS011;10424;52.102;8.084;2022-11-20T03:26:24;18.07;;;8.03;;
20531;SDS011;10424;52.102;8.084;2022-11-20T03:28:53;15.63;;;7.50;;
20531;SDS011;10424;52.102;8.084;2022-11-20T03:31:22;14.20;;;6.63;;
20531;SDS011;10424;52.102;8.084;2022-11-20T03:33:50;13.57;;;6.50;;
20531;SDS011;10424;52.102;8.084;2022-11-20T03:36:18;16.47;;;7.07;;
20531;SDS011;10424;52.102;8.084;2022-11-20T03:38:46;12.80;;;5.90;;
20531;SDS011;10424;52.102;8.084;2022-11-20T03:41:14;13.90;;;5.90;;
20531;SDS011;10424;52.102;8.084;2022-11-20T03:43:46;12.43;;;5.87;;
20531;SDS011;10424;52.102;8.084;2022-11-20T03:46:14;14.00;;;6.63;;
20531;SDS011;10424;52.102;8.084;2022-11-20T03:48:41;12.50;;;6.43;;
20531;SDS011;10424;52.102;8.084;2022-11-20T03:51:11;14.13;;;6.47;;
20531;SDS011;10424;52.102;8.084;2022-11-20T03:53:38;17.00;;;6.73;;
20531;SDS011;10424;52.102;8.084;2022-11-20T03:56:06;12.30;;;6.47;;
20531;SDS011;10424;52.102;8.084;2022-11-20T03:58:34;13.90;;;6.33;;
20531;SDS011;10424;52.102;8.084;2022-11-20T04:01:05;12.27;;;6.10;;
20531;SDS011;10424;52.102;8.084;2022-11-20T04:03:33;13.93;;;6.20;;
20531;SDS011;10424;52.102;8.084;2022-11-20T04:06:01;13.77;;;6.27;;
20531;SDS011;10424;52.102;8.084;2022-11-20T04:08:30;12.70;;;5.97;;
20531;SDS011;10424;52.102;8.084;2022-11-20T04:11:07;13.00;;;6.63;;
20531;SDS011;10424;52.102;8.084;2022-11-20T04:13:34;18.50;;;7.17;;
20531;SDS011;10424;52.102;8.084;2022-11-20T04:16:02;14.20;;;6.37;;
20531;SDS011;10424;52.102;8.084;2022-11-20T04:18:29;14.73;;;6.87;;
20531;SDS011;10424;52.102;8.084;2022-11-20T04:20:56;13.37;;;6.23;;
20531;SDS011;10424;52.102;8.084;2022-11-20T04:23:24;15.70;;;6.60;;
20531;SDS011;10424;52.102;8.084;2022-11-20T04:25:52;15.83;;;6.43;;
20531;SDS011;10424;52.102;8.084;2022-11-20T04:28:20;15.60;;;7.40;;
20531;SDS011;10424;52.102;8.084;2022-11-20T04:30:47;15.77;;;6.77;;
20531;SDS011;10424;52.102;8.084;2022-11-20T04:33:14;14.20;;;7.00;;
20531;SDS011;10424;52.102;8.084;2022-11-20T04:35:41;18.80;;;7.50;;
20531;SDS011;10424;52.102;8.084;2022-11-20T04:38:09;14.27;;;6.77;;
20531;SDS011;10424;52.102;8.084;2022-11-20T04:40:36;16.60;;;7.13;;
20531;SDS011;10424;52.102;8.084;2022-11-20T04:43:05;15.73;;;7.37;;
20531;SDS011;10424;52.102;8.084;2022-11-20T04:45:32;15.43;;;7.20;;
20531;SDS011;10424;52.102;8.084;2022-11-20T04:47:59;15.67;;;6.90;;
20531;SDS011;10424;52.102;8.084;2022-11-20T04:50:26;15.40;;;7.20;;
20531;SDS011;10424;52.102;8.084;2022-11-20T04:52:54;15.70;;;7.53;;
20531;SDS011;10424;52.102;8.084;2022-11-20T04:55:21;13.27;;;6.60;;
20531;SDS011;10424;52.102;8.084;2022-11-20T04:57:49;16.27;;;7.20;;
20531;SDS011;10424;52.102;8.084;2022-11-20T05:00:18;16.13;;;7.77;;
20531;SDS011;10424;52.102;8.084;2022-11-20T05:02:45;15.10;;;7.00;;
20531;SDS011;10424;52.102;8.084;2022-11-20T05:05:13;15.17;;;7.30;;
20531;SDS011;10424;52.102;8.084;2022-11-20T05:07:40;14.63;;;7.30;;
20531;SDS011;10424;52.102;8.084;2022-11-20T05:10:07;16.57;;;7.10;;
20531;SDS011;10424;52.102;8.084;2022-11-20T05:12:35;15.03;;;7.20;;
20531;SDS011;10424;52.102;8.084;2022-11-20T05:15:02;17.23;;;6.87;;
20531;SDS011;10424;52.102;8.084;2022-11-20T05:17:31;15.97;;;7.20;;
20531;SDS011;10424;52.102;8.084;2022-11-20T05:19:58;15.53;;;7.37;;
20531;SDS011;10424;52.102;8.084;2022-11-20T05:22:25;17.47;;;7.53;;
20531;SDS011;10424;52.102;8.084;2022-11-20T05:24:53;15.57;;;6.97;;
20531;SDS011;10424;52.102;8.084;2022-11-20T05:27:20;16.37;;;7.23;;
20531;SDS011;10424;52.102;8.084;2022-11-20T05:29:47;14.77;;;7.67;;
20531;SDS011;10424;52.102;8.084;2022-11-20T05:32:14;15.90;;;6.93;;
20531;SDS011;10424;52.102;8.084;2022-11-20T05:34:43;14.03;;;6.43;;
20531;SDS011;10424;52.102;8.084;2022-11-20T05:37:10;16.37;;;7.50;;
20531;SDS011;10424;52.102;8.084;2022-11-20T05:39:37;13.97;;;6.67;;
20531;SDS011;10424;52.102;8.084;2022-11-20T05:42:04;15.60;;;7.20;;
20531;SDS011;10424;52.102;8.084;2022-11-20T05:44:50;16.17;;;7.37;;
20531;SDS011;10424;52.102;8.084;2022-11-20T05:47:17;18.37;;;7.33;;
20531;SDS011;10424;52.102;8.084;2022-11-20T05:49:45;13.97;;;6.60;;
20531;SDS011;10424;52.102;8.084;2022-11-20T05:52:13;14.37;;;6.73;;
20531;SDS011;10424;52.102;8.084;2022-11-20T05:54:40;16.57;;;6.83;;
20531;SDS011;10424;52.102;8.084;2022-11-20T05:57:07;14.93;;;6.63;;
20531;SDS011;10424;52.102;8.084;2022-11-20T05:59:34;12.43;;;6.17;;
20531;SDS011;10424;52.102;8.084;2022-11-20T06:02:02;13.83;;;6.30;;
20531;SDS011;10424;52.102;8.084;2022-11-20T06:04:29;14.17;;;7.40;;
20531;SDS011;10424;52.102;8.084;2022-11-20T06:06:57;17.70;;;7.37;;
20531;SDS011;10424;52.102;8.084;2022-11-20T06:09:25;16.73;;;8.00;;
20531;SDS011;10424;52.102;8.084;2022-11-20T06:11:52;16.50;;;7.03;;
20531;SDS011;10424;52.102;8.084;2022-11-20T06:14:19;22.17;;;9.23;;
20531;SDS011;10424;52.102;8.084;2022-11-20T06:16:46;56.20;;;16.17;;
20531;SDS011;10424;52.102;8.084;2022-11-20T06:19:14;62.80;;;17.77;;
20531;SDS011;10424;52.102;8.084;2022-11-20T06:21:41;37.87;;;12.00;;
20531;SDS011;10424;52.102;8.084;2022-11-20T06:24:10;38.40;;;12.53;;
20531;SDS011;10424;52.102;8.084;2022-11-20T06:26:37;30.10;;;11.23;;
20531;SDS011;10424;52.102;8.084;2022-11-20T06:29:04;26.03;;;10.83;;
20531;SDS011;10424;52.102;8.084;2022-11-20T06:31:32;20.03;;;9.17;;
20531;SDS011;10424;52.102;8.084;2022-11-20T06:34:02;20.57;;;8.23;;
20531;SDS011;10424;52.102;8.084;2022-11-20T06:36:29;19.10;;;8.37;;
20531;SDS011;10424;52.102;8.084;2022-11-20T06:38:57;19.77;;;8.77;;
20531;SDS011;10424;52.102;8.084;2022-11-20T06:41:25;20.80;;;9.50;;
20531;SDS011;10424;52.102;8.084;2022-11-20T06:43:53;19.17;;;8.10;;
20531;SDS011;10424;52.102;8.084;2022-11-20T06:46:20;21.67;;;8.67;;
20531;SDS011;10424;52.102;8.084;2022-11-20T06:48:47;20.33;;;9.37;;
20531;SDS011;10424;52.102;8.084;2022-11-20T06:51:15;22.57;;;10.00;;
20531;SDS011;10424;52.102;8.084;2022-11-20T06:53:42;24.50;;;10.43;;
20531;SDS011;10424;52.102;8.084;2022-11-20T06:56:10;22.87;;;9.80;;
20531;SDS011;10424;52.102;8.084;2022-11-20T06:58:38;27.87;;;11.43;;
20531;SDS011;10424;52.102;8.084;2022-11-20T07:01:06;26.93;;;11.77;;
20531;SDS011;10424;52.102;8.084;2022-11-20T07:03:34;24.07;;;10.43;;
20531;SDS011;10424;52.102;8.084;2022-11-20T07:06:01;24.67;;;11.53;;
20531;SDS011;10424;52.102;8.084;2022-11-20T07:08:29;22.47;;;10.80;;
20531;SDS011;10424;52.102;8.084;2022-11-20T07:10:57;25.13;;;12.10;;
20531;SDS011;10424;52.102;8.084;2022-11-20T07:13:24;27.80;;;11.10;;
20531;SDS011;10424;52.102;8.084;2022-11-20T07:15:53;22.73;;;10.93;;
20531;SDS011;10424;52.102;8.084;2022-11-20T07:18:20;24.17;;;11.03;;
20531;SDS011;10424;52.102;8.084;2022-11-20T07:20:48;23.53;;;10.97;;
20531;SDS011;10424;52.102;8.084;2022-11-20T07:23:15;28.57;;;12.30;;
20531;SDS011;10424;52.102;8.084;2022-11-20T07:25:42;28.80;;;13.10;;
20531;SDS011;10424;52.102;8.084;2022-11-20T07:28:09;31.40;;;12.90;;
20531;SDS011;10424;52.102;8.084;2022-11-20T07:30:37;31.93;;;13.40;;
20531;SDS011;10424;52.102;8.084;2022-11-20T07:33:06;43.70;;;13.30;;
20531;SDS011;10424;52.102;8.084;2022-11-20T07:35:33;46.27;;;17.50;;
20531;SDS011;10424;52.102;8.084;2022-11-20T07:38:00;42.67;;;15.47;;
20531;SDS011;10424;52.102;8.084;2022-11-20T07:40:28;37.00;;;14.43;;
20531;SDS011;10424;52.102;8.084;2022-11-20T07:42:55;45.47;;;17.07;;
20531;SDS011;10424;52.102;8.084;2022-11-20T07:45:23;39.70;;;14.90;;
20531;SDS011;10424;52.102;8.084;2022-11-20T07:47:51;48.53;;;15.00;;
20531;SDS011;10424;52.102;8.084;2022-11-20T07:50:19;58.03;;;16.80;;
20531;SDS011;10424;52.102;8.084;2022-11-20T07:52:47;59.10;;;16.13;;
20531;SDS011;10424;52.102;8.084;2022-11-20T07:55:14;53.47;;;18.47;;
20531;SDS011;10424;52.102;8.084;2022-11-20T07:57:42;51.33;;;16.70;;
20531;SDS011;10424;52.102;8.084;2022-11-20T08:00:10;51.17;;;16.70;;
20531;SDS011;10424;52.102;8.084;2022-11-20T08:02:38;46.57;;;17.47;;
20531;SDS011;10424;52.102;8.084;2022-11-20T08:05:05;56.10;;;18.23;;
20531;SDS011;10424;52.102;8.084;2022-11-20T08:07:36;52.13;;;15.90;;
20531;SDS011;10424;52.102;8.084;2022-11-20T08:10:04;65.87;;;17.60;;
20531;SDS011;10424;52.102;8.084;2022-11-20T08:12:31;61.40;;;18.63;;
20531;SDS011;10424;52.102;8.084;2022-11-20T08:15:16;60.67;;;17.93;;
20531;SDS011;10424;52.102;8.084;2022-11-20T08:17:44;95.90;;;18.77;;
20531;SDS011;10424;52.102;8.084;2022-11-20T08:20:11;61.83;;;17.10;;
20531;SDS011;10424;52.102;8.084;2022-11-20T08:22:40;73.83;;;18.30;;
20531;SDS011;10424;52.102;8.084;2022-11-20T08:25:07;51.50;;;16.80;;
20531;SDS011;10424;52.102;8.084;2022-11-20T08:27:34;137.00;;;18.70;;
20531;SDS011;10424;52.102;8.084;2022-11-20T08:30:02;70.20;;;17.67;;
20531;SDS011;10424;52.102;8.084;2022-11-20T08:32:29;57.53;;;17.17;;
20531;SDS011;10424;52.102;8.084;2022-11-20T08:34:56;72.33;;;17.67;;
20531;SDS011;10424;52.102;8.084;2022-11-20T08:37:24;65.57;;;15.77;;
20531;SDS011;10424;52.102;8.084;2022-11-20T08:39:53;81.07;;;17.33;;
20531;SDS011;10424;52.102;8.084;2022-11-20T08:42:22;53.33;;;15.00;;
20531;SDS011;10424;52.102;8.084;2022-11-20T08:44:49;54.07;;;17.20;;
20531;SDS011;10424;52.102;8.084;2022-11-20T08:47:16;82.97;;;18.93;;
20531;SDS011;10424;52.102;8.084;2022-11-20T08:49:44;66.43;;;20.70;;
20531;SDS011;10424;52.102;8.084;2022-11-20T08:52:11;71.23;;;20.00;;
20531;SDS011;10424;52.102;8.084;2022-11-20T08:54:38;66.83;;;17.07;;
20531;SDS011;10424;52.102;8.084;2022-11-20T08:57:07;59.07;;;17.77;;
20531;SDS011;10424;52.102;8.084;2022-11-20T08:59:34;53.33;;;18.20;;
20531;SDS011;10424;52.102;8.084;2022-11-20T09:02:02;59.53;;;18.77;;
20531;SDS011;10424;52.102;8.084;2022-11-20T09:04:29;53.20;;;16.83;;
20531;SDS011;10424;52.102;8.084;2022-11-20T09:06:56;60.30;;;18.90;;
20531;SDS011;10424;52.102;8.084;2022-11-20T09:09:23;65.77;;;20.20;;
20531;SDS011;10424;52.102;8.084;2022-11-20T09:11:51;59.80;;;19.23;;
20531;SDS011;10424;52.102;8.084;2022-11-20T09:14:19;58.33;;;19.13;;
20531;SDS011;10424;52.102;8.084;2022-11-20T09:16:50;59.40;;;19.00;;
20531;SDS011;10424;52.102;8.084;2022-11-20T09:19:17;56.40;;;18.03;;
20531;SDS011;10424;52.102;8.084;2022-11-20T09:21:44;51.27;;;17.80;;
20531;SDS011;10424;52.102;8.084;2022-11-20T09:24:11;52.60;;;18.17;;
20531;SDS011;10424;52.102;8.084;2022-11-20T09:26:39;66.23;;;21.77;;
20531;SDS011;10424;52.102;8.084;2022-11-20T09:29:06;64.20;;;22.57;;
20531;SDS011;10424;52.102;8.084;2022-11-20T09:31:39;52.07;;;16.57;;
20531;SDS011;10424;52.102;8.084;2022-11-20T09:34:07;60.63;;;19.00;;
20531;SDS011;10424;52.102;8.084;2022-11-20T09:36:35;31.00;;;11.67;;
20531;SDS011;10424;52.102;8.084;2022-11-20T09:39:02;60.60;;;21.70;;
20531;SDS011;10424;52.102;8.084;2022-11-20T09:41:35;61.40;;;21.40;;
20531;SDS011;10424;52.102;8.084;2022-11-20T09:44:04;54.23;;;19.37;;
20531;SDS011;10424;52.102;8.084;2022-11-20T09:46:35;54.87;;;20.77;;
20531;SDS011;10424;52.102;8.084;2022-11-20T09:49:11;56.67;;;20.87;;
20531;SDS011;10424;52.102;8.084;2022-11-20T09:51:43;50.73;;;19.47;;
20531;SDS011;10424;52.102;8.084;2022-11-20T09:54:14;49.73;;;19.17;;
20531;SDS011;10424;52.102;8.084;2022-11-20T09:56:42;54.23;;;19.30;;
20531;SDS011;10424;52.102;8.084;2022-11-20T09:59:14;46.07;;;17.33;;
20531;SDS011;10424;52.102;8.084;2022-11-20T10:01:44;56.73;;;21.10;;
20531;SDS011;10424;52.102;8.084;2022-11-20T10:04:15;51.00;;;19.67;;
20531;SDS011;10424;52.102;8.084;2022-11-20T10:06:44;44.30;;;17.57;;
20531;SDS011;10424;52.102;8.084;2022-11-20T10:09:16;47.03;;;19.40;;
20531;SDS011;10424;52.102;8.084;2022-11-20T10:11:46;44.53;;;18.53;;
20531;SDS011;10424;52.102;8.084;2022-11-20T10:14:17;51.07;;;20.77;;
20531;SDS011;10424;52.102;8.084;2022-11-20T10:16:50;39.83;;;18.27;;
20531;SDS011;10424;52.102;8.084;2022-11-20T10:19:26;38.70;;;17.53;;
20531;SDS011;10424;52.102;8.084;2022-11-20T10:21:58;40.10;;;17.80;;
20531;SDS011;10424;52.102;8.084;2022-11-20T10:24:37;37.63;;;17.13;;
20531;SDS011;10424;52.102;8.084;2022-11-20T10:27:11;38.47;;;15.80;;
20531;SDS011;10424;52.102;8.084;2022-11-20T10:29:42;40.07;;;14.87;;
20531;SDS011;10424;52.102;8.084;2022-11-20T10:32:14;40.60;;;18.13;;
20531;SDS011;10424;52.102;8.084;2022-11-20T10:34:44;39.90;;;15.17;;
20531;SDS011;10424;52.102;8.084;2022-11-20T10:37:14;42.03;;;18.40;;
20531;SDS011;10424;52.102;8.084;2022-11-20T10:39:44;44.33;;;18.60;;
20531;SDS011;10424;52.102;8.084;2022-11-20T10:42:14;44.40;;;19.07;;
20531;SDS011;10424;52.102;8.084;2022-11-20T10:44:43;47.57;;;20.47;;
20531;SDS011;10424;52.102;8.084;2022-11-20T10:47:30;46.57;;;19.00;;
20531;SDS011;10424;52.102;8.084;2022-11-20T10:50:01;48.83;;;20.20;;
20531;SDS011;10424;52.102;8.084;2022-11-20T10:52:31;46.80;;;19.37;;
20531;SDS011;10424;52.102;8.084;2022-11-20T10:55:06;46.17;;;18.97;;
20531;SDS011;10424;52.102;8.084;2022-11-20T10:57:45;47.77;;;18.87;;
20531;SDS011;10424;52.102;8.084;2022-11-20T11:00:14;45.90;;;18.40;;
20531;SDS011;10424;52.102;8.084;2022-11-20T11:02:43;41.70;;;16.33;;
20531;SDS011;10424;52.102;8.084;2022-11-20T11:05:27;40.70;;;18.20;;
20531;SDS011;10424;52.102;8.084;2022-11-20T11:07:58;43.30;;;19.23;;
20531;SDS011;10424;52.102;8.084;2022-11-20T11:10:28;42.63;;;18.70;;
20531;SDS011;10424;52.102;8.084;2022-11-20T11:12:59;39.13;;;18.23;;
20531;SDS011;10424;52.102;8.084;2022-11-20T11:15:27;39.10;;;18.53;;
20531;SDS011;10424;52.102;8.084;2022-11-20T11:17:55;36.57;;;17.47;;
20531;SDS011;10424;52.102;8.084;2022-11-20T11:20:23;37.13;;;17.60;;
20531;SDS011;10424;52.102;8.084;2022-11-20T11:22:52;34.10;;;16.30;;
20531;SDS011;10424;52.102;8.084;2022-11-20T11:25:25;33.93;;;17.67;;
20531;SDS011;10424;52.102;8.084;2022-11-20T11:27:53;35.67;;;18.10;;
20531;SDS011;10424;52.102;8.084;2022-11-20T11:30:21;32.60;;;16.70;;
20531;SDS011;10424;52.102;8.084;2022-11-20T11:32:49;32.65;;;16.85;;
20531;SDS011;10424;52.102;8.084;2022-11-20T11:35:20;31.95;;;17.55;;
20531;SDS011;10424;52.102;8.084;2022-11-20T11:37:48;27.90;;;15.57;;
20531;SDS011;10424;52.102;8.084;2022-11-20T11:40:18;26.85;;;16.08;;
20531;SDS011;10424;52.102;8.084;2022-11-20T11:42:47;28.88;;;15.85;;
20531;SDS011;10424;52.102;8.084;2022-11-20T11:45:17;25.13;;;15.27;;
20531;SDS011;10424;52.102;8.084;2022-11-20T11:47:44;25.92;;;14.88;;
20531;SDS011;10424;52.102;8.084;2022-11-20T11:50:16;23.75;;;14.57;;
20531;SDS011;10424;52.102;8.084;2022-11-20T11:52:45;27.20;;;15.38;;
20531;SDS011;10424;52.102;8.084;2022-11-20T11:55:14;25.13;;;15.30;;
20531;SDS011;10424;52.102;8.084;2022-11-20T11:57:46;24.88;;;15.82;;
20531;SDS011;10424;52.102;8.084;2022-11-20T12:00:14;28.52;;;16.42;;
20531;SDS011;10424;52.102;8.084;2022-11-20T12:02:46;30.63;;;17.27;;
20531;SDS011;10424;52.102;8.084;2022-11-20T12:05:18;28.58;;;16.85;;
20531;SDS011;10424;52.102;8.084;2022-11-20T12:07:46;31.70;;;18.38;;
20531;SDS011;10424;52.102;8.084;2022-11-20T12:10:18;29.23;;;16.40;;
20531;SDS011;10424;52.102;8.084;2022-11-20T12:12:50;27.60;;;15.82;;
20531;SDS011;10424;52.102;8.084;2022-11-20T12:15:22;28.75;;;15.70;;
20531;SDS011;10424;52.102;8.084;2022-11-20T12:17:51;27.42;;;15.82;;
20531;SDS011;10424;52.102;8.084;2022-11-20T12:20:19;31.33;;;16.80;;
20531;SDS011;10424;52.102;8.084;2022-11-20T12:22:49;28.38;;;15.75;;
20531;SDS011;10424;52.102;8.084;2022-11-20T12:25:18;27.70;;;15.40;;
20531;SDS011;10424;52.102;8.084;2022-11-20T12:27:54;31.85;;;16.77;;
20531;SDS011;10424;52.102;8.084;2022-11-20T12:30:24;28.60;;;16.25;;
20531;SDS011;10424;52.102;8.084;2022-11-20T12:33:04;25.55;;;14.93;;
20531;SDS011;10424;52.102;8.084;2022-11-20T12:35:42;28.53;;;16.23;;
20531;SDS011;10424;52.102;8.084;2022-11-20T12:41:04;28.90;;;15.93;;
20531;SDS011;10424;52.102;8.084;2022-11-20T12:43:34;28.83;;;16.20;;
20531;SDS011;10424;52.102;8.084;2022-11-20T12:46:23;28.87;;;15.17;;
20531;SDS011;10424;52.102;8.084;2022-11-20T12:51:51;25.35;;;15.07;;
20531;SDS011;10424;52.102;8.084;2022-11-20T12:54:34;27.45;;;14.68;;
20531;SDS011;10424;52.102;8.084;2022-11-20T12:57:05;24.20;;;14.07;;
20531;SDS011;10424;52.102;8.084;2022-11-20T12:59:44;24.45;;;14.55;;
20531;SDS011;10424;52.102;8.084;2022-11-20T13:02:18;23.65;;;14.88;;
20531;SDS011;10424;52.102;8.084;2022-11-20T13:07:44;22.00;;;14.00;;
20531;SDS011;10424;52.102;8.084;2022-11-20T13:10:14;23.05;;;14.77;;
20531;SDS011;10424;52.102;8.084;2022-11-20T13:12:45;24.13;;;13.80;;
20531;SDS011;10424;52.102;8.084;2022-11-20T13:15:17;25.45;;;15.20;;
20531;SDS011;10424;52.102;8.084;2022-11-20T13:17:50;23.58;;;14.70;;
20531;SDS011;10424;52.102;8.084;2022-11-20T13:20:19;24.10;;;15.00;;
20531;SDS011;10424;52.102;8.084;2022-11-20T13:22:47;27.63;;;15.45;;
20531;SDS011;10424;52.102;8.084;2022-11-20T13:25:22;24.35;;;14.98;;
20531;SDS011;10424;52.102;8.084;2022-11-20T13:27:50;23.33;;;14.77;;
20531;SDS011;10424;52.102;8.084;2022-11-20T13:30:19;24.77;;;14.75;;
20531;SDS011;10424;52.102;8.084;2022-11-20T13:32:51;25.35;;;15.23;;
20531;SDS011;10424;52.102;8.084;2022-11-20T13:35:29;24.38;;;14.18;;
20531;SDS011;10424;52.102;8.084;2022-11-20T13:38:00;24.15;;;14.50;;
20531;SDS011;10424;52.102;8.084;2022-11-20T13:40:28;25.73;;;14.57;;
20531;SDS011;10424;52.102;8.084;2022-11-20T13:42:56;25.95;;;15.38;;
20531;SDS011;10424;52.102;8.084;2022-11-20T13:45:30;25.42;;;14.68;;
20531;SDS011;10424;52.102;8.084;2022-11-20T13:47:58;26.45;;;14.85;;
20531;SDS011;10424;52.102;8.084;2022-11-20T13:50:32;24.73;;;14.38;;
20531;SDS011;10424;52.102;8.084;2022-11-20T13:53:07;24.85;;;14.38;;
20531;SDS011;10424;52.102;8.084;2022-11-20T13:55:40;27.33;;;14.75;;
20531;SDS011;10424;52.102;8.084;2022-11-20T13:58:15;25.35;;;15.07;;
20531;SDS011;10424;52.102;8.084;2022-11-20T14:00:48;25.77;;;14.32;;
20531;SDS011;10424;52.102;8.084;2022-11-20T14:03:18;28.23;;;14.63;;
20531;SDS011;10424;52.102;8.084;2022-11-20T14:05:47;25.08;;;14.02;;
20531;SDS011;10424;52.102;8.084;2022-11-20T14:08:19;26.58;;;15.00;;
20531;SDS011;10424;52.102;8.084;2022-11-20T14:10:48;27.75;;;14.90;;
20531;SDS011;10424;52.102;8.084;2022-11-20T14:13:15;24.88;;;13.77;;
20531;SDS011;10424;52.102;8.084;2022-11-20T14:15:44;27.83;;;15.10;;
20531;SDS011;10424;52.102;8.084;2022-11-20T14:18:13;26.95;;;14.20;;
20531;SDS011;10424;52.102;8.084;2022-11-20T14:20:41;28.17;;;14.63;;
20531;SDS011;10424;52.102;8.084;2022-11-20T14:23:10;28.87;;;15.03;;
20531;SDS011;10424;52.102;8.084;2022-11-20T14:25:41;30.33;;;14.47;;
20531;SDS011;10424;52.102;8.084;2022-11-20T14:28:10;28.57;;;15.07;;
20531;SDS011;10424;52.102;8.084;2022-11-20T14:30:42;28.33;;;15.40;;
20531;SDS011;10424;52.102;8.084;2022-11-20T14:33:10;29.17;;;16.37;;
20531;SDS011;10424;52.102;8.084;2022-11-20T14:35:43;32.27;;;16.77;;
20531;SDS011;10424;52.102;8.084;2022-11-20T14:38:11;28.10;;;16.00;;
20531;SDS011;10424;52.102;8.084;2022-11-20T14:40:40;30.10;;;15.63;;
20531;SDS011;10424;52.102;8.084;2022-11-20T14:43:16;31.80;;;16.77;;
20531;SDS011;10424;52.102;8.084;2022-11-20T14:45:44;29.20;;;15.37;;